Time;durP1;ratioP1;P1;durP2;ratioP2;P2;SDS_P1;SDS_P2;PMS_P1;PMS_P2;Temp;Humidity;BMP_temperature;BMP_pressure;BME280_temperature;BME280_humidity;BME280_pressure;Samples;Min_cycle;Max_cycle;Signal;HPM_P1;HPM_P2
2020/12/12 00:08:52;;;;;;;47.7;34.9;;;;;;;-1.51;91.22852;97554.6;;;;
2020/12/12 00:18:50;;;;;;;41.3;30.5;;;;;;;-1.29;90.30371;97565.04;;;;
2020/12/12 00:28:50;;;;;;;33.1;25.8;;;;;;;-1.57;90.87695;97552.98;;;;
2020/12/12 00:38:45;;;;;;;38;27.9;;;;;;;-1.61;90.9668;97557.18;;;;
2020/12/12 00:48:43;;;;;;;40.7;24.8;;;;;;;-1.74;90.56934;97568.99;;;;
2020/12/12 00:58:40;;;;;;;40;26.1;;;;;;;-1.85;90.98145;97563.88;;;;
2020/12/12 01:08:38;;;;;;;37.9;28.8;;;;;;;-1.88;90.88672;97556.47;;;;
2020/12/12 01:18:35;;;;;;;36.5;28.6;;;;;;;-1.92;90.21289;97550.09;;;;
2020/12/12 01:28:34;;;;;;;34.5;21;;;;;;;-1.88;89.92578;97556.47;;;;
2020/12/12 01:38:30;;;;;;;29.6;25.1;;;;;;;-1.85;89.99902;97561.23;;;;
2020/12/12 01:48:28;;;;;;;27.3;21.5;;;;;;;-1.86;89.65625;97551.72;;;;
2020/12/12 01:58:26;;;;;;;38;25.7;;;;;;;-1.95;89.86719;97537.41;;;;
2020/12/12 02:08:23;;;;;;;44.1;26.5;;;;;;;-2.05;90.33887;97538.9;;;;
2020/12/12 02:18:21;;;;;;;38.2;25.9;;;;;;;-2.13;90.62793;97520.91;;;;
2020/12/12 02:28:20;;;;;;;40.5;27.8;;;;;;;-2.2;91.52832;97520.32;;;;
2020/12/12 02:38:16;;;;;;;31;20.9;;;;;;;-2.25;92.1709;97511.55;;;;
2020/12/12 02:48:13;;;;;;;40.4;26.4;;;;;;;-2.18;92.5459;97512.13;;;;
2020/12/12 02:58:11;;;;;;;33.8;24.9;;;;;;;-2.1;92.71582;97506.4;;;;
2020/12/12 03:08:08;;;;;;;30.9;20.2;;;;;;;-2.03;92.98242;97506.98;;;;
2020/12/12 03:18:06;;;;;;;28.3;24.5;;;;;;;-1.89;92.68457;97502.06;;;;
2020/12/12 03:28:03;;;;;;;32.4;26.3;;;;;;;-1.86;92.4502;97496.27;;;;
2020/12/12 03:38:01;;;;;;;31.6;23.5;;;;;;;-1.82;92.73438;97492.88;;;;
2020/12/12 03:47:59;;;;;;;34.5;23.2;;;;;;;-1.85;92.67188;97477.55;;;;
2020/12/12 03:57:56;;;;;;;27;21.3;;;;;;;-1.85;92.25781;97489.95;;;;
2020/12/12 04:07:54;;;;;;;25.6;18.9;;;;;;;-1.96;92.62695;97481.16;;;;
2020/12/12 04:17:51;;;;;;;38.9;23.7;;;;;;;-1.93;92.6748;97464.02;;;;
2020/12/12 04:27:51;;;;;;;36.7;22.6;;;;;;;-1.7;92.61816;97474.97;;;;
2020/12/12 04:37:47;;;;;;;38;23;;;;;;;-1.5;92.03809;97469.02;;;;
2020/12/12 04:47:44;;;;;;;35.6;22.8;;;;;;;-1.39;91.40625;97469.86;;;;
2020/12/12 04:57:42;;;;;;;28.3;21.7;;;;;;;-1.32;91.71875;97484.4;;;;
2020/12/12 05:07:39;;;;;;;30.9;20.9;;;;;;;-1.26;91.23828;97480.75;;;;
2020/12/12 05:17:37;;;;;;;34.1;22.7;;;;;;;-1.38;91.55176;97474.87;;;;
2020/12/12 05:27:35;;;;;;;31.1;20.2;;;;;;;-1.48;92.15137;97484.59;;;;
2020/12/12 05:37:33;;;;;;;26;22.9;;;;;;;-1.45;92.64844;97499.92;;;;
2020/12/12 05:47:30;;;;;;;28.1;19;;;;;;;-1.47;92.9834;97492.28;;;;
2020/12/12 05:57:28;;;;;;;30.9;21.4;;;;;;;-1.46;92.83203;97495.72;;;;
2020/12/12 06:07:26;;;;;;;27;17.5;;;;;;;-1.45;92.49609;97507.86;;;;
2020/12/12 06:17:23;;;;;;;32;23.2;;;;;;;-1.43;91.71484;97519.78;;;;
2020/12/12 06:27:21;;;;;;;23.5;19.4;;;;;;;-1.49;92.16016;97504.93;;;;
2020/12/12 06:37:19;;;;;;;16.8;15.2;;;;;;;-1.39;92.09473;97507.66;;;;
2020/12/12 06:47:16;;;;;;;25.5;19.5;;;;;;;-1.48;92.16406;97506.53;;;;
2020/12/12 06:57:14;;;;;;;20.4;16.7;;;;;;;-1.42;91.66309;97512.66;;;;
2020/12/12 07:07:12;;;;;;;20;14.6;;;;;;;-1.24;91.58301;97510.34;;;;
2020/12/12 07:17:09;;;;;;;23.2;17.6;;;;;;;-1.36;91.03125;97499.2;;;;
2020/12/12 07:27:07;;;;;;;27.4;18.6;;;;;;;-1.25;91.21875;97500.81;;;;
2020/12/12 07:37:05;;;;;;;21.8;16;;;;;;;-1.39;91.71191;97501.56;;;;
2020/12/12 07:47:03;;;;;;;22.5;14.9;;;;;;;-1.42;91.56445;97497.57;;;;
2020/12/12 07:57:01;;;;;;;21.4;15.5;;;;;;;-1.35;91.875;97506.06;;;;
2020/12/12 08:07:02;;;;;;;22.5;14.4;;;;;;;-1.3;91.62402;97508.73;;;;
2020/12/12 08:16:58;;;;;;;20.4;12.8;;;;;;;-1.22;91.27832;97515.39;;;;
2020/12/12 08:26:53;;;;;;;22;14.3;;;;;;;-1.11;90.94238;97515.15;;;;
2020/12/12 08:36:51;;;;;;;19.7;17.6;;;;;;;-1.03;90.80664;97529.73;;;;
2020/12/12 08:46:54;;;;;;;26.7;17.5;;;;;;;-0.94;90.27734;97537.97;;;;
2020/12/12 08:56:47;;;;;;;24.7;17;;;;;;;-0.7;89.50684;97531.16;;;;
2020/12/12 09:06:44;;;;;;;29.2;19;;;;;;;-0.56;89.1123;97533.06;;;;
2020/12/12 09:16:42;;;;;;;29.9;19.8;;;;;;;-0.6;89.11133;97539.13;;;;
2020/12/12 09:26:41;;;;;;;24.4;19.8;;;;;;;-0.33;88.63086;97525.66;;;;
2020/12/12 09:36:39;;;;;;;26.1;18.5;;;;;;;-0.46;88.8584;97529.63;;;;
2020/12/12 09:46:35;;;;;;;36.1;22.7;;;;;;;-0.46;88.13574;97524.34;;;;
2020/12/12 09:56:33;;;;;;;33.5;19.2;;;;;;;-0.27;87.94434;97517.46;;;;
2020/12/12 10:06:31;;;;;;;29.4;23.4;;;;;;;0.05;86.83594;97517.2;;;;
2020/12/12 10:16:29;;;;;;;27.7;22.3;;;;;;;0.08;86.63281;97508.72;;;;
2020/12/12 10:26:27;;;;;;;34.5;25.8;;;;;;;0.19;86.08398;97509.51;;;;
2020/12/12 10:36:24;;;;;;;23.6;19.5;;;;;;;0.16;85.94629;97521.44;;;;
2020/12/12 10:46:22;;;;;;;25.7;19.1;;;;;;;0.13;86.68555;97521.18;;;;
2020/12/12 10:56:20;;;;;;;34.9;26.5;;;;;;;0.08;86.53418;97524.61;;;;
2020/12/12 11:06:18;;;;;;;29;20.5;;;;;;;0.08;86.30371;97529.91;;;;
2020/12/12 11:16:16;;;;;;;32.7;19.8;;;;;;;0.26;87.12988;97541.83;;;;
2020/12/12 11:26:14;;;;;;;35.7;24.3;;;;;;;0.19;86.64355;97534.15;;;;
2020/12/12 11:36:23;;;;;;;36.9;25.6;;;;;;;0.24;86.1709;97534.16;;;;
2020/12/12 11:46:25;;;;;;;35.8;27.3;;;;;;;0.08;86.88379;97529.11;;;;
2020/12/12 11:56:08;;;;;;;37.9;27;;;;;;;0.28;86.5957;97542.34;;;;
2020/12/12 12:06:05;;;;;;;32.6;21.8;;;;;;;0.17;85.69434;97551.38;;;;
2020/12/12 12:16:03;;;;;;;35.8;25.8;;;;;;;-0.13;87.90723;97542.36;;;;
2020/12/12 12:26:01;;;;;;;46;28.6;;;;;;;0.12;87.41992;97559.31;;;;
2020/12/12 12:36:02;;;;;;;35.8;25.2;;;;;;;0.01;87.79297;97563.81;;;;
2020/12/12 12:45:57;;;;;;;38.7;25.8;;;;;;;0.21;87.27344;97563.04;;;;
2020/12/12 12:55:55;;;;;;;30.8;25;;;;;;;0.18;87.31152;97563.55;;;;
2020/12/12 13:05:52;;;;;;;33.9;23.2;;;;;;;0.18;86.87207;97569.64;;;;
2020/12/12 13:15:52;;;;;;;33.8;23.4;;;;;;;-0.19;88.31152;97577.05;;;;
2020/12/12 13:25:48;;;;;;;27.2;23.4;;;;;;;-0.02;88.02637;97588.19;;;;
2020/12/12 13:35:46;;;;;;;71.6;50.7;;;;;;;-0.01;88.48047;97600.38;;;;
2020/12/12 13:45:44;;;;;;;32.7;26.1;;;;;;;-0.2;88.86914;97594.78;;;;
2020/12/12 13:55:41;;;;;;;31.2;24.4;;;;;;;-0.11;88.98633;97598.52;;;;
2020/12/12 14:05:43;;;;;;;47.1;30.5;;;;;;;0.05;88.45996;97601.97;;;;
2020/12/12 14:25:39;;;;;;;47.1;33.2;;;;;;;-0.14;89.6582;97608.84;;;;
2020/12/12 14:35:32;;;;;;;41;28;;;;;;;-0.06;89.69727;97605.66;;;;
2020/12/12 14:45:30;;;;;;;25.9;19.9;;;;;;;-0.1;90.38867;97615.17;;;;
2020/12/12 14:55:28;;;;;;;34.4;27.1;;;;;;;-0.07;90.63965;97626.04;;;;
2020/12/12 15:05:26;;;;;;;32.9;26;;;;;;;-0.16;91.33105;97627.63;;;;
2020/12/12 15:15:23;;;;;;;26.8;22.8;;;;;;;-0.14;91.78418;97630.02;;;;
2020/12/12 15:25:21;;;;;;;36.2;23.9;;;;;;;-0.1;92.17676;97634.52;;;;
2020/12/12 15:35:19;;;;;;;34.3;27.1;;;;;;;0.01;91.69629;97656.52;;;;
2020/12/12 15:45:16;;;;;;;38.4;27.1;;;;;;;0.03;91.9082;97662.36;;;;
2020/12/12 15:55:14;;;;;;;40.6;25.6;;;;;;;0.06;91.47754;97651.23;;;;
2020/12/12 16:05:12;;;;;;;46.3;29.7;;;;;;;0.11;91.28809;97655.73;;;;
2020/12/12 16:15:11;;;;;;;75.1;58.6;;;;;;;0.21;90.82813;97658.42;;;;
2020/12/12 16:25:07;;;;;;;26.9;24.1;;;;;;;0.26;91.47559;97658.41;;;;
2020/12/12 16:35:05;;;;;;;34;23.8;;;;;;;0.24;90.6709;97674.59;;;;
2020/12/12 16:45:03;;;;;;;37;25.3;;;;;;;0.29;90.97656;97673.78;;;;
2020/12/12 16:55:00;;;;;;;38.4;25.1;;;;;;;0.33;91.13965;97683.59;;;;
2020/12/12 17:04:58;;;;;;;43.4;27.4;;;;;;;0.41;90.9502;97693.69;;;;
2020/12/12 17:14:56;;;;;;;42.6;31.8;;;;;;;0.46;90.9248;97695.52;;;;
2020/12/12 17:24:54;;;;;;;44.4;38;;;;;;;0.55;90.58203;97709.06;;;;
2020/12/12 17:34:52;;;;;;;42.8;36.3;;;;;;;0.47;91.29102;97710.38;;;;
2020/12/12 17:44:55;;;;;;;44.4;33.3;;;;;;;0.56;90.87988;97715.93;;;;
2020/12/12 17:54:50;;;;;;;43.5;31.6;;;;;;;0.57;90.79395;97717.53;;;;
2020/12/12 18:04:45;;;;;;;43.5;27.8;;;;;;;0.58;90.71973;97724.44;;;;
2020/12/12 18:14:43;;;;;;;39.6;31.3;;;;;;;0.72;90.79395;97733.46;;;;
2020/12/12 18:24:41;;;;;;;37;29;;;;;;;0.69;90.52441;97740.09;;;;
2020/12/12 18:34:40;;;;;;;53.1;30.5;;;;;;;0.62;90.66504;97736.91;;;;
2020/12/12 18:44:36;;;;;;;40.4;30.5;;;;;;;0.63;90.85156;97750.94;;;;
2020/12/12 18:54:34;;;;;;;38.3;25.1;;;;;;;0.58;90.92773;97761.55;;;;
2020/12/12 19:04:32;;;;;;;44;27.3;;;;;;;0.57;90.87109;97770.55;;;;
2020/12/12 19:14:30;;;;;;;41.2;28.6;;;;;;;0.57;90.93652;97778.5;;;;
2020/12/12 19:24:28;;;;;;;40.5;30.1;;;;;;;0.62;90.61914;97789.13;;;;
2020/12/12 19:34:25;;;;;;;34.9;27.3;;;;;;;0.63;90.57715;97791.5;;;;
2020/12/12 19:44:23;;;;;;;31.2;23.1;;;;;;;0.75;90.2627;97796.57;;;;
2020/12/12 19:54:21;;;;;;;32.4;25.8;;;;;;;0.65;90.26465;97802.66;;;;
2020/12/12 20:04:19;;;;;;;50.8;37.2;;;;;;;0.78;89.5332;97817.26;;;;
2020/12/12 20:14:17;;;;;;;32.4;22.8;;;;;;;0.75;90.08691;97829.2;;;;
2020/12/12 20:24:15;;;;;;;37.1;23.8;;;;;;;0.7;90.08691;97838.98;;;;
2020/12/12 20:34:12;;;;;;;31.3;21.9;;;;;;;0.76;89.27637;97833.45;;;;
2020/12/12 20:44:10;;;;;;;37.5;24.2;;;;;;;0.69;89.70117;97840.86;;;;
2020/12/12 20:54:08;;;;;;;25.1;21.1;;;;;;;0.54;89.41602;97845.31;;;;
2020/12/12 21:04:06;;;;;;;36.1;21.7;;;;;;;0.51;89.30078;97854.59;;;;
2020/12/12 21:14:04;;;;;;;29.6;21.2;;;;;;;0.61;88.91309;97872.38;;;;
2020/12/12 21:24:01;;;;;;;28.8;22;;;;;;;0.31;89.47949;97881.8;;;;
2020/12/12 21:33:59;;;;;;;26.5;19.6;;;;;;;0.44;89.65918;97885.84;;;;
2020/12/12 21:43:57;;;;;;;25.8;18.6;;;;;;;0.49;89.37402;97883.19;;;;
2020/12/12 21:53:55;;;;;;;49.4;36.6;;;;;;;0.58;89.18262;97886.16;;;;
2020/12/12 22:04:00;;;;;;;60.1;40.7;;;;;;;0.58;88.47949;97899.41;;;;
2020/12/12 22:13:52;;;;;;;56.8;37.5;;;;;;;0.65;88.5293;97906.07;;;;
2020/12/12 22:23:48;;;;;;;67.8;44.4;;;;;;;0.68;88.13867;97918;;;;
2020/12/12 22:33:46;;;;;;;41.7;31.6;;;;;;;0.58;88.36035;97924.07;;;;
2020/12/12 22:43:44;;;;;;;45.6;30.7;;;;;;;0.66;87.9248;97933.39;;;;
2020/12/12 22:53:44;;;;;;;40.6;28.1;;;;;;;0.62;87.75391;97941.06;;;;
2020/12/12 23:03:39;;;;;;;48;29.8;;;;;;;0.6;87.17773;97943.16;;;;
2020/12/12 23:13:37;;;;;;;40.8;28.7;;;;;;;0.41;86.7002;97944.67;;;;
2020/12/12 23:23:35;;;;;;;36.2;27.8;;;;;;;0.28;87.21289;97956.52;;;;
2020/12/12 23:33:33;;;;;;;39.4;30.4;;;;;;;-0.04;88.02441;97946.01;;;;
2020/12/12 23:43:30;;;;;;;43.1;28.9;;;;;;;-0.14;88.54004;97950.44;;;;
2020/12/12 23:53:28;;;;;;;46.7;30.5;;;;;;;-0.29;88.68359;97979.43;;;;
